sensor_id;sensor_type;location;lat;lon;timestamp;P1;durP1;ratioP1;P2;durP2;ratioP2
68216;SDS011;55037;52.354;4.992;2023-02-15T00:02:02;103.75;;;72.60;;
68216;SDS011;55037;52.354;4.992;2023-02-15T00:04:29;96.10;;;67.95;;
68216;SDS011;55037;52.354;4.992;2023-02-15T00:07:15;105.93;;;73.50;;
68216;SDS011;55037;52.354;4.992;2023-02-15T00:09:45;96.30;;;68.22;;
68216;SDS011;55037;52.354;4.992;2023-02-15T00:12:13;94.13;;;66.90;;
68216;SDS011;55037;52.354;4.992;2023-02-15T00:14:41;94.72;;;67.90;;
68216;SDS011;55037;52.354;4.992;2023-02-15T00:17:08;90.93;;;67.13;;
68216;SDS011;55037;52.354;4.992;2023-02-15T00:19:36;95.30;;;67.00;;
68216;SDS011;55037;52.354;4.992;2023-02-15T00:22:03;101.25;;;70.38;;
68216;SDS011;55037;52.354;4.992;2023-02-15T00:24:30;95.65;;;67.40;;
68216;SDS011;55037;52.354;4.992;2023-02-15T00:26:57;101.72;;;71.10;;
68216;SDS011;55037;52.354;4.992;2023-02-15T00:29:25;107.07;;;74.72;;
68216;SDS011;55037;52.354;4.992;2023-02-15T00:31:52;101.03;;;70.32;;
68216;SDS011;55037;52.354;4.992;2023-02-15T00:34:24;97.05;;;67.25;;
68216;SDS011;55037;52.354;4.992;2023-02-15T00:36:53;111.35;;;74.88;;
68216;SDS011;55037;52.354;4.992;2023-02-15T00:39:20;97.68;;;69.47;;
68216;SDS011;55037;52.354;4.992;2023-02-15T00:41:47;99.43;;;69.05;;
68216;SDS011;55037;52.354;4.992;2023-02-15T00:44:15;102.90;;;71.40;;
68216;SDS011;55037;52.354;4.992;2023-02-15T00:46:42;102.50;;;72.13;;
68216;SDS011;55037;52.354;4.992;2023-02-15T00:49:10;97.95;;;71.50;;
68216;SDS011;55037;52.354;4.992;2023-02-15T00:51:37;103.53;;;74.78;;
68216;SDS011;55037;52.354;4.992;2023-02-15T00:54:06;105.80;;;74.80;;
68216;SDS011;55037;52.354;4.992;2023-02-15T00:56:33;102.33;;;74.57;;
68216;SDS011;55037;52.354;4.992;2023-02-15T00:59:01;105.03;;;74.57;;
68216;SDS011;55037;52.354;4.992;2023-02-15T01:01:28;102.20;;;74.72;;
68216;SDS011;55037;52.354;4.992;2023-02-15T01:03:56;109.15;;;77.55;;
68216;SDS011;55037;52.354;4.992;2023-02-15T01:06:23;110.28;;;76.30;;
68216;SDS011;55037;52.354;4.992;2023-02-15T01:08:50;105.05;;;74.22;;
68216;SDS011;55037;52.354;4.992;2023-02-15T01:11:19;100.00;;;70.35;;
68216;SDS011;55037;52.354;4.992;2023-02-15T01:13:52;100.93;;;73.03;;
68216;SDS011;55037;52.354;4.992;2023-02-15T01:16:22;96.70;;;70.03;;
68216;SDS011;55037;52.354;4.992;2023-02-15T01:18:50;105.03;;;73.38;;
68216;SDS011;55037;52.354;4.992;2023-02-15T01:21:19;101.68;;;73.75;;
68216;SDS011;55037;52.354;4.992;2023-02-15T01:23:48;105.13;;;75.67;;
68216;SDS011;55037;52.354;4.992;2023-02-15T01:26:16;103.07;;;74.72;;
68216;SDS011;55037;52.354;4.992;2023-02-15T01:28:43;104.22;;;75.18;;
68216;SDS011;55037;52.354;4.992;2023-02-15T01:31:13;105.20;;;76.87;;
68216;SDS011;55037;52.354;4.992;2023-02-15T01:33:44;100.40;;;71.83;;
68216;SDS011;55037;52.354;4.992;2023-02-15T01:36:12;102.18;;;72.70;;
68216;SDS011;55037;52.354;4.992;2023-02-15T01:38:39;102.22;;;73.25;;
68216;SDS011;55037;52.354;4.992;2023-02-15T01:41:07;121.13;;;79.30;;
68216;SDS011;55037;52.354;4.992;2023-02-15T01:43:48;132.70;;;84.32;;
68216;SDS011;55037;52.354;4.992;2023-02-15T01:46:33;126.28;;;81.65;;
68216;SDS011;55037;52.354;4.992;2023-02-15T01:49:11;131.75;;;85.28;;
68216;SDS011;55037;52.354;4.992;2023-02-15T01:51:41;111.38;;;77.45;;
68216;SDS011;55037;52.354;4.992;2023-02-15T01:54:15;112.93;;;79.20;;
68216;SDS011;55037;52.354;4.992;2023-02-15T01:56:47;109.05;;;76.68;;
68216;SDS011;55037;52.354;4.992;2023-02-15T01:59:17;107.17;;;75.90;;
68216;SDS011;55037;52.354;4.992;2023-02-15T02:01:48;101.82;;;75.57;;
68216;SDS011;55037;52.354;4.992;2023-02-15T02:04:23;102.73;;;74.27;;
68216;SDS011;55037;52.354;4.992;2023-02-15T02:07:04;101.28;;;74.75;;
68216;SDS011;55037;52.354;4.992;2023-02-15T02:09:34;90.13;;;66.30;;
68216;SDS011;55037;52.354;4.992;2023-02-15T02:12:02;93.20;;;69.17;;
68216;SDS011;55037;52.354;4.992;2023-02-15T02:14:29;90.28;;;61.88;;
68216;SDS011;55037;52.354;4.992;2023-02-15T02:16:58;92.18;;;64.57;;
68216;SDS011;55037;52.354;4.992;2023-02-15T02:25:38;96.23;;;70.23;;
68216;SDS011;55037;52.354;4.992;2023-02-15T02:42:36;85.55;;;59.85;;
68216;SDS011;55037;52.354;4.992;2023-02-15T02:47:40;102.22;;;74.10;;
68216;SDS011;55037;52.354;4.992;2023-02-15T02:50:15;108.77;;;75.47;;
68216;SDS011;55037;52.354;4.992;2023-02-15T02:52:45;95.70;;;66.05;;
68216;SDS011;55037;52.354;4.992;2023-02-15T03:00:20;98.35;;;71.70;;
68216;SDS011;55037;52.354;4.992;2023-02-15T03:02:51;86.90;;;62.00;;
68216;SDS011;55037;52.354;4.992;2023-02-15T03:05:22;90.90;;;67.30;;
68216;SDS011;55037;52.354;4.992;2023-02-15T03:07:53;88.35;;;61.63;;
68216;SDS011;55037;52.354;4.992;2023-02-15T03:10:23;84.32;;;58.25;;
68216;SDS011;55037;52.354;4.992;2023-02-15T03:12:53;87.68;;;62.72;;
68216;SDS011;55037;52.354;4.992;2023-02-15T03:15:22;89.35;;;63.65;;
68216;SDS011;55037;52.354;4.992;2023-02-15T03:17:56;80.63;;;58.47;;
68216;SDS011;55037;52.354;4.992;2023-02-15T03:20:30;80.15;;;57.10;;
68216;SDS011;55037;52.354;4.992;2023-02-15T03:23:02;79.90;;;57.25;;
68216;SDS011;55037;52.354;4.992;2023-02-15T03:25:38;81.82;;;57.63;;
68216;SDS011;55037;52.354;4.992;2023-02-15T03:28:11;77.43;;;57.38;;
68216;SDS011;55037;52.354;4.992;2023-02-15T03:30:42;87.72;;;65.00;;
68216;SDS011;55037;52.354;4.992;2023-02-15T03:33:13;78.93;;;56.90;;
68216;SDS011;55037;52.354;4.992;2023-02-15T03:35:46;79.57;;;58.60;;
68216;SDS011;55037;52.354;4.992;2023-02-15T03:38:19;84.85;;;58.88;;
68216;SDS011;55037;52.354;4.992;2023-02-15T03:40:52;82.07;;;57.33;;
68216;SDS011;55037;52.354;4.992;2023-02-15T03:48:58;88.00;;;59.73;;
68216;SDS011;55037;52.354;4.992;2023-02-15T03:51:34;89.68;;;58.72;;
68216;SDS011;55037;52.354;4.992;2023-02-15T03:56:41;89.47;;;59.73;;
68216;SDS011;55037;52.354;4.992;2023-02-15T03:59:28;89.43;;;59.08;;
68216;SDS011;55037;52.354;4.992;2023-02-15T04:02:17;88.63;;;58.08;;
68216;SDS011;55037;52.354;4.992;2023-02-15T04:04:50;92.13;;;59.40;;
68216;SDS011;55037;52.354;4.992;2023-02-15T04:07:17;90.57;;;61.38;;
68216;SDS011;55037;52.354;4.992;2023-02-15T04:09:44;91.35;;;60.10;;
68216;SDS011;55037;52.354;4.992;2023-02-15T04:12:49;92.68;;;59.45;;
68216;SDS011;55037;52.354;4.992;2023-02-15T04:15:17;88.90;;;58.05;;
68216;SDS011;55037;52.354;4.992;2023-02-15T04:18:03;90.50;;;59.20;;
68216;SDS011;55037;52.354;4.992;2023-02-15T04:20:30;91.95;;;59.58;;
68216;SDS011;55037;52.354;4.992;2023-02-15T04:23:16;90.75;;;59.38;;
68216;SDS011;55037;52.354;4.992;2023-02-15T04:26:05;93.25;;;60.20;;
68216;SDS011;55037;52.354;4.992;2023-02-15T04:28:32;92.17;;;59.40;;
68216;SDS011;55037;52.354;4.992;2023-02-15T04:31:02;95.18;;;61.40;;
68216;SDS011;55037;52.354;4.992;2023-02-15T04:33:29;91.03;;;59.65;;
68216;SDS011;55037;52.354;4.992;2023-02-15T04:35:57;85.90;;;58.20;;
68216;SDS011;55037;52.354;4.992;2023-02-15T04:38:24;89.78;;;58.85;;
68216;SDS011;55037;52.354;4.992;2023-02-15T04:40:51;90.75;;;59.92;;
68216;SDS011;55037;52.354;4.992;2023-02-15T04:43:19;97.95;;;59.28;;
68216;SDS011;55037;52.354;4.992;2023-02-15T04:45:47;99.35;;;61.17;;
68216;SDS011;55037;52.354;4.992;2023-02-15T04:48:16;96.78;;;60.47;;
68216;SDS011;55037;52.354;4.992;2023-02-15T04:50:44;90.73;;;60.23;;
68216;SDS011;55037;52.354;4.992;2023-02-15T04:53:11;94.73;;;60.37;;
68216;SDS011;55037;52.354;4.992;2023-02-15T04:55:39;103.40;;;62.30;;
68216;SDS011;55037;52.354;4.992;2023-02-15T04:58:06;97.63;;;59.83;;
68216;SDS011;55037;52.354;4.992;2023-02-15T05:00:33;96.90;;;60.33;;
68216;SDS011;55037;52.354;4.992;2023-02-15T05:03:00;100.20;;;61.67;;
68216;SDS011;55037;52.354;4.992;2023-02-15T05:05:27;102.32;;;61.30;;
68216;SDS011;55037;52.354;4.992;2023-02-15T05:07:55;96.20;;;60.75;;
68216;SDS011;55037;52.354;4.992;2023-02-15T05:10:22;99.33;;;60.77;;
68216;SDS011;55037;52.354;4.992;2023-02-15T05:12:49;104.10;;;64.20;;
68216;SDS011;55037;52.354;4.992;2023-02-15T05:15:16;99.65;;;62.08;;
68216;SDS011;55037;52.354;4.992;2023-02-15T05:17:43;106.40;;;63.72;;
68216;SDS011;55037;52.354;4.992;2023-02-15T05:20:11;99.18;;;61.95;;
68216;SDS011;55037;52.354;4.992;2023-02-15T05:22:38;99.93;;;61.23;;
68216;SDS011;55037;52.354;4.992;2023-02-15T05:25:08;102.32;;;60.75;;
68216;SDS011;55037;52.354;4.992;2023-02-15T05:27:54;96.23;;;59.13;;
68216;SDS011;55037;52.354;4.992;2023-02-15T05:30:40;95.57;;;58.90;;
68216;SDS011;55037;52.354;4.992;2023-02-15T05:33:07;91.30;;;58.72;;
68216;SDS011;55037;52.354;4.992;2023-02-15T05:35:35;95.22;;;58.47;;
68216;SDS011;55037;52.354;4.992;2023-02-15T05:38:02;94.70;;;58.70;;
68216;SDS011;55037;52.354;4.992;2023-02-15T05:40:29;97.47;;;59.55;;
68216;SDS011;55037;52.354;4.992;2023-02-15T05:42:56;92.35;;;58.75;;
68216;SDS011;55037;52.354;4.992;2023-02-15T05:45:24;92.20;;;58.85;;
68216;SDS011;55037;52.354;4.992;2023-02-15T05:47:51;91.72;;;56.88;;
68216;SDS011;55037;52.354;4.992;2023-02-15T05:50:19;98.40;;;60.15;;
68216;SDS011;55037;52.354;4.992;2023-02-15T05:52:46;98.32;;;59.58;;
68216;SDS011;55037;52.354;4.992;2023-02-15T05:55:13;95.38;;;60.50;;
68216;SDS011;55037;52.354;4.992;2023-02-15T05:57:41;99.72;;;60.83;;
68216;SDS011;55037;52.354;4.992;2023-02-15T06:00:08;97.57;;;58.20;;
68216;SDS011;55037;52.354;4.992;2023-02-15T06:02:39;95.57;;;60.35;;
68216;SDS011;55037;52.354;4.992;2023-02-15T06:05:07;95.55;;;59.63;;
68216;SDS011;55037;52.354;4.992;2023-02-15T06:07:34;97.13;;;60.00;;
68216;SDS011;55037;52.354;4.992;2023-02-15T06:10:01;97.43;;;59.87;;
68216;SDS011;55037;52.354;4.992;2023-02-15T06:12:29;95.55;;;59.78;;
68216;SDS011;55037;52.354;4.992;2023-02-15T06:14:57;87.60;;;56.30;;
68216;SDS011;55037;52.354;4.992;2023-02-15T06:17:24;94.50;;;61.22;;
68216;SDS011;55037;52.354;4.992;2023-02-15T06:19:51;96.85;;;58.85;;
68216;SDS011;55037;52.354;4.992;2023-02-15T06:22:18;87.28;;;56.60;;
68216;SDS011;55037;52.354;4.992;2023-02-15T06:24:46;90.63;;;57.70;;
68216;SDS011;55037;52.354;4.992;2023-02-15T06:27:14;99.00;;;59.08;;
68216;SDS011;55037;52.354;4.992;2023-02-15T06:29:41;90.22;;;58.05;;
68216;SDS011;55037;52.354;4.992;2023-02-15T06:32:08;92.60;;;58.67;;
68216;SDS011;55037;52.354;4.992;2023-02-15T06:34:35;93.30;;;56.70;;
68216;SDS011;55037;52.354;4.992;2023-02-15T06:37:03;92.55;;;58.28;;
68216;SDS011;55037;52.354;4.992;2023-02-15T06:39:30;88.80;;;56.00;;
68216;SDS011;55037;52.354;4.992;2023-02-15T06:41:58;90.72;;;57.55;;
68216;SDS011;55037;52.354;4.992;2023-02-15T06:44:25;86.90;;;56.38;;
68216;SDS011;55037;52.354;4.992;2023-02-15T06:46:52;83.88;;;55.65;;
68216;SDS011;55037;52.354;4.992;2023-02-15T06:49:20;88.43;;;57.72;;
68216;SDS011;55037;52.354;4.992;2023-02-15T06:51:47;86.50;;;56.57;;
68216;SDS011;55037;52.354;4.992;2023-02-15T06:54:14;83.67;;;54.80;;
68216;SDS011;55037;52.354;4.992;2023-02-15T06:56:41;89.55;;;57.90;;
68216;SDS011;55037;52.354;4.992;2023-02-15T06:59:10;86.97;;;57.70;;
68216;SDS011;55037;52.354;4.992;2023-02-15T07:01:37;88.25;;;57.53;;
68216;SDS011;55037;52.354;4.992;2023-02-15T07:04:04;78.68;;;53.65;;
68216;SDS011;55037;52.354;4.992;2023-02-15T07:06:32;83.95;;;55.38;;
68216;SDS011;55037;52.354;4.992;2023-02-15T07:09:00;82.30;;;53.90;;
68216;SDS011;55037;52.354;4.992;2023-02-15T07:11:27;81.50;;;54.58;;
68216;SDS011;55037;52.354;4.992;2023-02-15T07:14:18;85.32;;;55.55;;
68216;SDS011;55037;52.354;4.992;2023-02-15T07:16:45;79.28;;;53.63;;
68216;SDS011;55037;52.354;4.992;2023-02-15T07:19:12;84.38;;;55.22;;
68216;SDS011;55037;52.354;4.992;2023-02-15T07:21:40;82.75;;;55.90;;
68216;SDS011;55037;52.354;4.992;2023-02-15T07:24:07;83.57;;;56.83;;
68216;SDS011;55037;52.354;4.992;2023-02-15T07:26:34;82.55;;;55.92;;
68216;SDS011;55037;52.354;4.992;2023-02-15T07:29:01;85.85;;;55.60;;
68216;SDS011;55037;52.354;4.992;2023-02-15T07:31:29;81.80;;;56.38;;
68216;SDS011;55037;52.354;4.992;2023-02-15T07:33:56;82.93;;;53.95;;
68216;SDS011;55037;52.354;4.992;2023-02-15T07:36:23;74.57;;;53.00;;
68216;SDS011;55037;52.354;4.992;2023-02-15T07:38:50;75.15;;;52.83;;
68216;SDS011;55037;52.354;4.992;2023-02-15T07:41:18;77.93;;;52.75;;
68216;SDS011;55037;52.354;4.992;2023-02-15T07:43:45;76.83;;;54.07;;
68216;SDS011;55037;52.354;4.992;2023-02-15T07:46:13;79.20;;;54.60;;
68216;SDS011;55037;52.354;4.992;2023-02-15T07:48:42;80.03;;;54.78;;
68216;SDS011;55037;52.354;4.992;2023-02-15T07:51:10;80.20;;;54.40;;
68216;SDS011;55037;52.354;4.992;2023-02-15T07:53:38;74.00;;;51.83;;
68216;SDS011;55037;52.354;4.992;2023-02-15T07:56:07;76.30;;;54.13;;
68216;SDS011;55037;52.354;4.992;2023-02-15T07:58:38;80.93;;;55.80;;
68216;SDS011;55037;52.354;4.992;2023-02-15T08:01:27;73.95;;;53.28;;
68216;SDS011;55037;52.354;4.992;2023-02-15T08:04:02;79.43;;;53.63;;
68216;SDS011;55037;52.354;4.992;2023-02-15T08:06:33;80.00;;;54.28;;
68216;SDS011;55037;52.354;4.992;2023-02-15T08:09:08;77.65;;;53.95;;
68216;SDS011;55037;52.354;4.992;2023-02-15T08:11:36;72.32;;;53.25;;
68216;SDS011;55037;52.354;4.992;2023-02-15T08:16:47;74.43;;;54.60;;
68216;SDS011;55037;52.354;4.992;2023-02-15T08:19:20;71.03;;;51.55;;
68216;SDS011;55037;52.354;4.992;2023-02-15T08:22:12;70.32;;;55.88;;
68216;SDS011;55037;52.354;4.992;2023-02-15T08:24:39;74.35;;;55.38;;
68216;SDS011;55037;52.354;4.992;2023-02-15T08:27:08;74.63;;;56.13;;
68216;SDS011;55037;52.354;4.992;2023-02-15T08:29:38;65.27;;;48.67;;
68216;SDS011;55037;52.354;4.992;2023-02-15T08:32:07;62.70;;;51.72;;
68216;SDS011;55037;52.354;4.992;2023-02-15T08:34:40;63.05;;;53.67;;
68216;SDS011;55037;52.354;4.992;2023-02-15T08:37:08;56.60;;;46.72;;
68216;SDS011;55037;52.354;4.992;2023-02-15T08:39:36;56.37;;;46.47;;
68216;SDS011;55037;52.354;4.992;2023-02-15T08:42:03;54.93;;;45.77;;
68216;SDS011;55037;52.354;4.992;2023-02-15T08:44:31;54.08;;;45.17;;
68216;SDS011;55037;52.354;4.992;2023-02-15T08:46:58;49.87;;;41.20;;
68216;SDS011;55037;52.354;4.992;2023-02-15T08:49:30;50.60;;;34.80;;
68216;SDS011;55037;52.354;4.992;2023-02-15T08:51:58;38.73;;;25.53;;
68216;SDS011;55037;52.354;4.992;2023-02-15T08:54:26;39.03;;;24.75;;
68216;SDS011;55037;52.354;4.992;2023-02-15T08:56:53;38.03;;;23.77;;
68216;SDS011;55037;52.354;4.992;2023-02-15T08:59:21;38.00;;;24.25;;
68216;SDS011;55037;52.354;4.992;2023-02-15T09:01:50;38.30;;;23.95;;
68216;SDS011;55037;52.354;4.992;2023-02-15T09:04:19;35.42;;;23.50;;
68216;SDS011;55037;52.354;4.992;2023-02-15T09:06:47;40.60;;;24.60;;
68216;SDS011;55037;52.354;4.992;2023-02-15T09:09:16;37.57;;;24.53;;
68216;SDS011;55037;52.354;4.992;2023-02-15T09:11:44;37.72;;;23.33;;
68216;SDS011;55037;52.354;4.992;2023-02-15T09:14:15;39.33;;;24.92;;
68216;SDS011;55037;52.354;4.992;2023-02-15T09:16:51;34.85;;;23.50;;
68216;SDS011;55037;52.354;4.992;2023-02-15T09:19:20;41.25;;;24.75;;
68216;SDS011;55037;52.354;4.992;2023-02-15T09:21:49;40.35;;;24.90;;
68216;SDS011;55037;52.354;4.992;2023-02-15T09:24:17;42.47;;;27.95;;
68216;SDS011;55037;52.354;4.992;2023-02-15T09:26:45;41.33;;;26.33;;
68216;SDS011;55037;52.354;4.992;2023-02-15T09:29:14;34.67;;;23.42;;
68216;SDS011;55037;52.354;4.992;2023-02-15T09:31:44;37.63;;;24.77;;
68216;SDS011;55037;52.354;4.992;2023-02-15T09:34:13;40.63;;;26.25;;
68216;SDS011;55037;52.354;4.992;2023-02-15T09:36:44;37.05;;;25.00;;
68216;SDS011;55037;52.354;4.992;2023-02-15T09:39:13;37.40;;;23.38;;
68216;SDS011;55037;52.354;4.992;2023-02-15T10:17:48;41.78;;;26.20;;
68216;SDS011;55037;52.354;4.992;2023-02-15T10:25:51;40.13;;;26.90;;
68216;SDS011;55037;52.354;4.992;2023-02-15T10:33:48;36.60;;;23.83;;
68216;SDS011;55037;52.354;4.992;2023-02-15T10:42:08;39.85;;;24.65;;
68216;SDS011;55037;52.354;4.992;2023-02-15T10:45:04;35.65;;;23.33;;
68216;SDS011;55037;52.354;4.992;2023-02-15T10:50:27;37.58;;;23.58;;
68216;SDS011;55037;52.354;4.992;2023-02-15T10:53:06;36.80;;;23.23;;
68216;SDS011;55037;52.354;4.992;2023-02-15T11:01:45;37.78;;;24.23;;
68216;SDS011;55037;52.354;4.992;2023-02-15T11:04:30;36.75;;;23.45;;
68216;SDS011;55037;52.354;4.992;2023-02-15T11:07:20;37.42;;;24.13;;
68216;SDS011;55037;52.354;4.992;2023-02-15T11:09:50;36.35;;;24.10;;
68216;SDS011;55037;52.354;4.992;2023-02-15T11:12:24;39.05;;;24.58;;
68216;SDS011;55037;52.354;4.992;2023-02-15T11:17:43;38.63;;;23.70;;
68216;SDS011;55037;52.354;4.992;2023-02-15T11:20:25;39.95;;;25.85;;
68216;SDS011;55037;52.354;4.992;2023-02-15T11:23:15;40.70;;;25.00;;
68216;SDS011;55037;52.354;4.992;2023-02-15T11:25:45;38.80;;;24.70;;
68216;SDS011;55037;52.354;4.992;2023-02-15T11:28:19;40.22;;;22.83;;
68216;SDS011;55037;52.354;4.992;2023-02-15T11:30:55;40.45;;;24.85;;
68216;SDS011;55037;52.354;4.992;2023-02-15T11:33:26;39.95;;;25.33;;
68216;SDS011;55037;52.354;4.992;2023-02-15T11:35:59;37.67;;;24.50;;
68216;SDS011;55037;52.354;4.992;2023-02-15T11:38:33;38.97;;;24.13;;
68216;SDS011;55037;52.354;4.992;2023-02-15T11:41:09;39.33;;;25.23;;
68216;SDS011;55037;52.354;4.992;2023-02-15T11:43:39;36.58;;;23.27;;
68216;SDS011;55037;52.354;4.992;2023-02-15T11:46:15;37.47;;;25.02;;
68216;SDS011;55037;52.354;4.992;2023-02-15T11:48:42;39.25;;;25.50;;
68216;SDS011;55037;52.354;4.992;2023-02-15T11:51:17;41.20;;;25.60;;
68216;SDS011;55037;52.354;4.992;2023-02-15T11:53:49;38.63;;;24.40;;
68216;SDS011;55037;52.354;4.992;2023-02-15T11:56:19;41.92;;;25.58;;
68216;SDS011;55037;52.354;4.992;2023-02-15T11:58:50;40.97;;;25.35;;
68216;SDS011;55037;52.354;4.992;2023-02-15T12:04:02;40.88;;;26.02;;
68216;SDS011;55037;52.354;4.992;2023-02-15T12:07:04;39.85;;;26.13;;
68216;SDS011;55037;52.354;4.992;2023-02-15T12:09:56;40.90;;;25.45;;
68216;SDS011;55037;52.354;4.992;2023-02-15T12:13:07;43.47;;;27.10;;
68216;SDS011;55037;52.354;4.992;2023-02-15T12:15:37;43.17;;;26.37;;
68216;SDS011;55037;52.354;4.992;2023-02-15T12:18:17;43.00;;;26.35;;
68216;SDS011;55037;52.354;4.992;2023-02-15T12:21:08;45.55;;;27.17;;
68216;SDS011;55037;52.354;4.992;2023-02-15T12:24:03;43.05;;;27.38;;
68216;SDS011;55037;52.354;4.992;2023-02-15T12:26:45;42.60;;;26.65;;
68216;SDS011;55037;52.354;4.992;2023-02-15T12:29:25;48.08;;;28.17;;
68216;SDS011;55037;52.354;4.992;2023-02-15T12:31:57;45.58;;;28.20;;
68216;SDS011;55037;52.354;4.992;2023-02-15T12:34:27;42.07;;;27.23;;
68216;SDS011;55037;52.354;4.992;2023-02-15T12:37:01;41.90;;;26.90;;
68216;SDS011;55037;52.354;4.992;2023-02-15T12:39:35;44.28;;;28.20;;
68216;SDS011;55037;52.354;4.992;2023-02-15T12:42:04;43.80;;;27.30;;
68216;SDS011;55037;52.354;4.992;2023-02-15T12:44:42;45.47;;;27.95;;
68216;SDS011;55037;52.354;4.992;2023-02-15T12:47:20;42.63;;;27.98;;
68216;SDS011;55037;52.354;4.992;2023-02-15T12:52:44;46.03;;;29.27;;
68216;SDS011;55037;52.354;4.992;2023-02-15T12:55:25;44.85;;;28.45;;
68216;SDS011;55037;52.354;4.992;2023-02-15T12:58:06;41.93;;;27.47;;
68216;SDS011;55037;52.354;4.992;2023-02-15T13:00:41;43.53;;;28.23;;
68216;SDS011;55037;52.354;4.992;2023-02-15T13:03:15;43.30;;;28.23;;
68216;SDS011;55037;52.354;4.992;2023-02-15T13:05:50;42.38;;;27.73;;
68216;SDS011;55037;52.354;4.992;2023-02-15T13:08:21;43.03;;;28.33;;
68216;SDS011;55037;52.354;4.992;2023-02-15T13:13:31;46.30;;;27.95;;
68216;SDS011;55037;52.354;4.992;2023-02-15T13:16:02;44.67;;;29.07;;
68216;SDS011;55037;52.354;4.992;2023-02-15T13:18:38;48.13;;;28.60;;
68216;SDS011;55037;52.354;4.992;2023-02-15T13:23:39;49.07;;;29.47;;
68216;SDS011;55037;52.354;4.992;2023-02-15T13:26:14;47.53;;;28.20;;
68216;SDS011;55037;52.354;4.992;2023-02-15T13:28:46;44.00;;;27.45;;
68216;SDS011;55037;52.354;4.992;2023-02-15T13:31:20;43.07;;;27.23;;
68216;SDS011;55037;52.354;4.992;2023-02-15T13:33:58;47.45;;;28.95;;
68216;SDS011;55037;52.354;4.992;2023-02-15T13:39:51;45.65;;;29.08;;
68216;SDS011;55037;52.354;4.992;2023-02-15T13:42:29;46.90;;;28.50;;
68216;SDS011;55037;52.354;4.992;2023-02-15T13:53:24;46.88;;;29.83;;
68216;SDS011;55037;52.354;4.992;2023-02-15T13:56:17;47.05;;;29.30;;
68216;SDS011;55037;52.354;4.992;2023-02-15T14:05:15;49.30;;;29.87;;
68216;SDS011;55037;52.354;4.992;2023-02-15T14:08:19;50.25;;;30.38;;
68216;SDS011;55037;52.354;4.992;2023-02-15T14:14:14;49.42;;;30.42;;
68216;SDS011;55037;52.354;4.992;2023-02-15T14:19:45;47.80;;;29.77;;
68216;SDS011;55037;52.354;4.992;2023-02-15T14:22:39;51.63;;;30.85;;
68216;SDS011;55037;52.354;4.992;2023-02-15T14:28:02;49.70;;;31.00;;
68216;SDS011;55037;52.354;4.992;2023-02-15T14:30:34;47.95;;;30.75;;
68216;SDS011;55037;52.354;4.992;2023-02-15T14:33:05;47.47;;;30.08;;
68216;SDS011;55037;52.354;4.992;2023-02-15T14:35:34;45.83;;;29.50;;
68216;SDS011;55037;52.354;4.992;2023-02-15T14:38:10;46.35;;;29.23;;
68216;SDS011;55037;52.354;4.992;2023-02-15T14:40:58;48.83;;;29.65;;
68216;SDS011;55037;52.354;4.992;2023-02-15T14:49:19;44.65;;;28.48;;
68216;SDS011;55037;52.354;4.992;2023-02-15T14:56:44;51.35;;;30.60;;
68216;SDS011;55037;52.354;4.992;2023-02-15T15:02:39;45.42;;;29.42;;
68216;SDS011;55037;52.354;4.992;2023-02-15T15:05:30;46.55;;;28.90;;
68216;SDS011;55037;52.354;4.992;2023-02-15T15:07:41;44.77;;;28.47;;
68216;SDS011;55037;52.354;4.992;2023-02-15T15:12:46;46.70;;;29.40;;
68216;SDS011;55037;52.354;4.992;2023-02-15T15:17:57;50.67;;;29.60;;
68216;SDS011;55037;52.354;4.992;2023-02-15T15:25:45;48.80;;;28.67;;
68216;SDS011;55037;52.354;4.992;2023-02-15T15:33:53;47.95;;;27.83;;
68216;SDS011;55037;52.354;4.992;2023-02-15T15:39:52;48.20;;;29.53;;
68216;SDS011;55037;52.354;4.992;2023-02-15T15:48:05;46.85;;;27.67;;
68216;SDS011;55037;52.354;4.992;2023-02-15T15:50:39;49.10;;;28.50;;
68216;SDS011;55037;52.354;4.992;2023-02-15T15:53:15;44.90;;;27.90;;
68216;SDS011;55037;52.354;4.992;2023-02-15T15:55:48;49.33;;;28.15;;
68216;SDS011;55037;52.354;4.992;2023-02-15T15:58:20;45.65;;;27.02;;
68216;SDS011;55037;52.354;4.992;2023-02-15T16:00:49;46.28;;;27.95;;
68216;SDS011;55037;52.354;4.992;2023-02-15T16:03:25;47.23;;;28.03;;
68216;SDS011;55037;52.354;4.992;2023-02-15T16:05:54;48.08;;;27.55;;
68216;SDS011;55037;52.354;4.992;2023-02-15T16:08:33;43.95;;;26.13;;
68216;SDS011;55037;52.354;4.992;2023-02-15T16:11:22;48.38;;;27.45;;
68216;SDS011;55037;52.354;4.992;2023-02-15T16:13:51;45.17;;;26.30;;
68216;SDS011;55037;52.354;4.992;2023-02-15T16:16:27;47.15;;;27.38;;
68216;SDS011;55037;52.354;4.992;2023-02-15T16:18:56;46.53;;;27.33;;
68216;SDS011;55037;52.354;4.992;2023-02-15T16:21:29;47.53;;;29.85;;
68216;SDS011;55037;52.354;4.992;2023-02-15T16:29:26;46.27;;;27.53;;
68216;SDS011;55037;52.354;4.992;2023-02-15T16:32:01;49.75;;;28.30;;
68216;SDS011;55037;52.354;4.992;2023-02-15T16:34:56;47.35;;;27.85;;
68216;SDS011;55037;52.354;4.992;2023-02-15T16:37:32;51.08;;;27.73;;
68216;SDS011;55037;52.354;4.992;2023-02-15T16:40:01;49.85;;;29.13;;
68216;SDS011;55037;52.354;4.992;2023-02-15T16:42:28;48.58;;;27.70;;
68216;SDS011;55037;52.354;4.992;2023-02-15T16:45:29;48.33;;;27.17;;
68216;SDS011;55037;52.354;4.992;2023-02-15T16:47:52;50.10;;;28.85;;
68216;SDS011;55037;52.354;4.992;2023-02-15T16:50:24;51.42;;;28.58;;
68216;SDS011;55037;52.354;4.992;2023-02-15T16:52:57;46.83;;;29.23;;
68216;SDS011;55037;52.354;4.992;2023-02-15T16:55:26;50.83;;;28.40;;
68216;SDS011;55037;52.354;4.992;2023-02-15T16:58:02;47.13;;;27.73;;
68216;SDS011;55037;52.354;4.992;2023-02-15T17:00:32;50.50;;;28.55;;
68216;SDS011;55037;52.354;4.992;2023-02-15T17:03:20;50.55;;;29.73;;
68216;SDS011;55037;52.354;4.992;2023-02-15T17:05:51;49.15;;;29.63;;
68216;SDS011;55037;52.354;4.992;2023-02-15T17:08:33;49.08;;;29.83;;
68216;SDS011;55037;52.354;4.992;2023-02-15T17:13:31;51.73;;;29.40;;
68216;SDS011;55037;52.354;4.992;2023-02-15T17:18:27;52.45;;;30.08;;
68216;SDS011;55037;52.354;4.992;2023-02-15T17:20:57;49.60;;;28.50;;
68216;SDS011;55037;52.354;4.992;2023-02-15T17:23:31;52.42;;;29.35;;
68216;SDS011;55037;52.354;4.992;2023-02-15T17:26:10;50.35;;;29.45;;
68216;SDS011;55037;52.354;4.992;2023-02-15T17:28:50;52.28;;;30.23;;
68216;SDS011;55037;52.354;4.992;2023-02-15T17:31:20;55.35;;;30.35;;
68216;SDS011;55037;52.354;4.992;2023-02-15T17:33:50;52.53;;;31.02;;
68216;SDS011;55037;52.354;4.992;2023-02-15T17:36:21;53.70;;;31.30;;
68216;SDS011;55037;52.354;4.992;2023-02-15T17:41:29;50.20;;;29.70;;
68216;SDS011;55037;52.354;4.992;2023-02-15T17:43:59;49.15;;;26.88;;
68216;SDS011;55037;52.354;4.992;2023-02-15T17:46:28;52.13;;;29.75;;
68216;SDS011;55037;52.354;4.992;2023-02-15T17:49:03;53.33;;;29.95;;
68216;SDS011;55037;52.354;4.992;2023-02-15T17:51:31;53.15;;;31.00;;
68216;SDS011;55037;52.354;4.992;2023-02-15T17:54:01;50.73;;;30.37;;
68216;SDS011;55037;52.354;4.992;2023-02-15T17:56:47;50.35;;;29.60;;
68216;SDS011;55037;52.354;4.992;2023-02-15T17:59:14;54.63;;;29.92;;
68216;SDS011;55037;52.354;4.992;2023-02-15T18:01:43;50.45;;;27.60;;
68216;SDS011;55037;52.354;4.992;2023-02-15T18:04:31;52.90;;;28.97;;